createdAt,value
2022-11-23T00:01:13.836Z,8.18
2022-11-23T00:04:18.720Z,8.50
2022-11-23T00:07:21.339Z,8.40
2022-11-23T00:10:24.392Z,8.68
2022-11-23T00:13:41.989Z,8.13
2022-11-23T00:16:46.439Z,8.68
2022-11-23T00:19:51.246Z,8.27
2022-11-23T00:22:54.418Z,7.75
2022-11-23T00:25:57.103Z,8.80
2022-11-23T00:29:00.469Z,8.43
2022-11-23T00:32:03.273Z,8.45
2022-11-23T00:35:08.333Z,8.75
2022-11-23T00:38:11.156Z,8.82
2022-11-23T00:41:15.020Z,8.73
2022-11-23T00:44:17.983Z,9.57
2022-11-23T00:47:20.707Z,7.60
2022-11-23T00:50:24.542Z,8.55
2022-11-23T00:53:27.224Z,8.32
2022-11-23T00:56:30.539Z,9.07
2022-11-23T00:59:33.643Z,8.32
2022-11-23T01:02:36.876Z,8.65
2022-11-23T01:05:40.817Z,8.07
2022-11-23T01:08:43.281Z,9.48
2022-11-23T01:11:46.520Z,8.82
2022-11-23T01:14:48.981Z,8.30
2022-11-23T01:17:51.471Z,8.02
2022-11-23T01:20:55.405Z,7.80
2022-11-23T01:23:58.746Z,7.40
2022-11-23T01:27:01.254Z,8.15
2022-11-23T01:30:04.924Z,7.55
2022-11-23T01:33:09.079Z,8.05
2022-11-23T01:36:14.217Z,8.20
2022-11-23T01:39:16.778Z,8.07
2022-11-23T01:42:19.311Z,8.55
2022-11-23T01:45:32.883Z,8.10
2022-11-23T01:48:37.670Z,7.30
2022-11-23T01:51:42.488Z,8.30
2022-11-23T01:54:47.568Z,8.80
2022-11-23T01:57:50.416Z,8.57
2022-11-23T02:00:53.201Z,8.07
2022-11-23T02:03:56.938Z,7.68
2022-11-23T02:07:01.064Z,7.70
2022-11-23T02:10:03.566Z,7.78
2022-11-23T02:13:07.421Z,7.35
2022-11-23T02:16:11.516Z,8.10
2022-11-23T02:19:17.197Z,8.43
2022-11-23T02:22:30.491Z,8.65
2022-11-23T02:25:35.832Z,8.63
2022-11-23T02:28:42.114Z,9.02
2022-11-23T02:31:44.665Z,8.13
2022-11-23T02:34:47.459Z,9.10
2022-11-23T02:37:51.255Z,8.40
2022-11-23T02:40:53.776Z,8.30
2022-11-23T02:43:59.198Z,7.30
2022-11-23T02:47:02.141Z,8.48
2022-11-23T02:50:04.924Z,8.27
2022-11-23T02:53:07.459Z,7.93
2022-11-23T02:56:10.010Z,7.55
2022-11-23T02:59:13.862Z,7.97
2022-11-23T03:02:18.380Z,7.20
2022-11-23T03:05:21.108Z,8.63
2022-11-23T03:08:27.501Z,7.45
2022-11-23T03:11:30.254Z,7.15
2022-11-23T03:14:34.346Z,8.02
2022-11-23T03:17:37.322Z,8.05
2022-11-23T03:20:40.193Z,8.05
2022-11-23T03:23:43.063Z,8.13
2022-11-23T03:26:47.798Z,7.72
2022-11-23T03:29:56.231Z,8.43
2022-11-23T03:32:59.970Z,6.93
2022-11-23T03:36:03.604Z,6.75
2022-11-23T03:39:10.734Z,8.32
2022-11-23T03:42:28.552Z,7.47
2022-11-23T03:45:33.721Z,6.68
2022-11-23T03:48:36.382Z,7.05
2022-11-23T03:51:39.702Z,8.43
2022-11-23T03:54:43.714Z,8.40
2022-11-23T03:57:48.757Z,7.40
2022-11-23T04:00:52.857Z,7.75
2022-11-23T04:03:57.448Z,6.05
2022-11-23T04:07:32.632Z,6.88
2022-11-23T04:10:39.417Z,6.90
2022-11-23T04:13:49.811Z,7.32
2022-11-23T04:16:54.665Z,7.18
2022-11-23T04:19:57.644Z,7.15
2022-11-23T04:23:00.448Z,5.15
2022-11-23T04:26:06.298Z,6.22
2022-11-23T04:29:09.444Z,7.07
2022-11-23T04:32:16.733Z,6.70
2022-11-23T04:35:22.261Z,6.60
2022-11-23T04:38:26.854Z,7.25
2022-11-23T04:41:29.661Z,8.23
2022-11-23T04:44:32.223Z,7.97
2022-11-23T04:47:40.735Z,6.80
2022-11-23T04:50:50.850Z,7.03
2022-11-23T04:54:03.127Z,6.82
2022-11-23T04:57:11.282Z,7.30
2022-11-23T05:00:15.631Z,6.40
2022-11-23T05:03:20.025Z,7.40
2022-11-23T05:06:22.708Z,6.45
2022-11-23T05:09:25.424Z,6.47
2022-11-23T05:12:43.828Z,6.15
2022-11-23T05:15:47.667Z,6.82
2022-11-23T05:18:56.757Z,6.32
2022-11-23T05:22:00.376Z,6.15
2022-11-23T05:25:03.714Z,6.55
2022-11-23T05:28:38.007Z,6.72
2022-11-23T05:31:32.401Z,6.68
2022-11-23T05:34:36.459Z,5.63
2022-11-23T05:37:40.558Z,5.90
2022-11-23T05:40:47.015Z,5.70
2022-11-23T05:43:50.685Z,6.35
2022-11-23T05:46:57.941Z,5.63
2022-11-23T05:50:03.907Z,5.95
2022-11-23T05:53:07.824Z,5.22
2022-11-23T05:56:10.612Z,7.00
2022-11-23T05:59:22.466Z,6.20
2022-11-23T06:02:30.866Z,6.38
2022-11-23T06:05:39.235Z,5.45
2022-11-23T06:08:44.491Z,6.53
2022-11-23T06:11:51.889Z,5.82
2022-11-23T06:14:56.425Z,5.45
2022-11-23T06:18:01.867Z,5.75
2022-11-23T06:21:14.000Z,5.90
2022-11-23T06:24:16.558Z,6.15
2022-11-23T06:27:19.436Z,5.35
2022-11-23T06:30:24.251Z,6.10
2022-11-23T06:33:27.203Z,5.72
2022-11-23T06:36:31.252Z,5.43
2022-11-23T06:39:34.445Z,5.35
2022-11-23T06:42:40.053Z,5.68
2022-11-23T06:45:50.695Z,4.80
2022-11-23T06:48:53.392Z,6.05
2022-11-23T06:51:57.888Z,5.65
2022-11-23T06:55:00.824Z,4.90
2022-11-23T06:58:03.613Z,4.88
2022-11-23T07:01:07.353Z,5.45
2022-11-23T07:04:16.930Z,5.40
2022-11-23T07:07:25.855Z,6.47
2022-11-23T07:10:36.994Z,5.13
2022-11-23T07:13:40.147Z,5.57
2022-11-23T07:16:42.850Z,5.22
2022-11-23T07:19:45.823Z,5.90
2022-11-23T07:22:49.778Z,5.28
2022-11-23T07:25:53.861Z,5.28
2022-11-23T07:28:56.393Z,5.38
2022-11-23T07:31:59.083Z,5.20
2022-11-23T07:35:02.612Z,5.85
2022-11-23T07:38:09.036Z,4.65
2022-11-23T07:41:12.250Z,4.07
2022-11-23T07:44:35.675Z,5.65
2022-11-23T07:47:38.895Z,5.55
2022-11-23T07:50:41.439Z,5.20
2022-11-23T07:53:45.531Z,4.68
2022-11-23T07:56:48.057Z,5.07
2022-11-23T07:59:50.705Z,5.63
2022-11-23T08:03:25.581Z,5.20
2022-11-23T08:06:16.327Z,5.20
2022-11-23T08:09:20.381Z,4.60
2022-11-23T08:12:23.379Z,4.45
2022-11-23T08:15:27.996Z,4.60
2022-11-23T08:18:30.487Z,4.43
2022-11-23T08:21:32.982Z,4.75
2022-11-23T08:24:37.188Z,4.88
2022-11-23T08:27:40.044Z,4.53
2022-11-23T08:30:42.800Z,5.00
2022-11-23T08:33:45.519Z,4.68
2022-11-23T08:37:00.348Z,3.85
2022-11-23T08:40:08.615Z,4.28
2022-11-23T08:43:11.625Z,4.47
2022-11-23T08:46:14.310Z,4.32
2022-11-23T08:49:17.378Z,5.20
2022-11-23T08:52:20.360Z,4.78
2022-11-23T08:55:24.427Z,4.07
2022-11-23T08:58:27.049Z,4.32
2022-11-23T09:01:30.155Z,4.82
2022-11-23T09:04:35.329Z,4.63
2022-11-23T09:07:39.145Z,4.55
2022-11-23T09:10:43.642Z,4.20
2022-11-23T09:13:46.473Z,4.35
2022-11-23T09:16:49.494Z,4.53
2022-11-23T09:19:52.287Z,4.53
2022-11-23T09:22:55.582Z,4.38
2022-11-23T09:26:00.487Z,4.35
2022-11-23T09:29:03.199Z,4.07
2022-11-23T09:32:06.424Z,4.63
2022-11-23T09:35:09.996Z,4.45
2022-11-23T09:38:12.870Z,4.40
2022-11-23T09:41:23.839Z,4.68
2022-11-23T09:44:32.905Z,4.28
2022-11-23T09:47:45.128Z,4.53
2022-11-23T09:50:48.807Z,4.18
2022-11-23T09:53:54.527Z,4.18
2022-11-23T09:57:02.115Z,3.97
2022-11-23T10:00:07.229Z,4.10
2022-11-23T10:03:16.056Z,4.65
2022-11-23T10:06:26.196Z,3.88
2022-11-23T10:09:34.914Z,3.88
2022-11-23T10:12:47.580Z,4.30
2022-11-23T10:16:15.201Z,4.30
2022-11-23T10:19:29.606Z,3.80
2022-11-23T10:22:50.494Z,3.75
2022-11-23T10:26:09.116Z,3.88
2022-11-23T10:29:48.950Z,4.28
2022-11-23T10:33:00.356Z,4.00
2022-11-23T10:36:10.788Z,3.67
2022-11-23T10:39:35.155Z,3.65
2022-11-23T10:42:44.794Z,3.78
2022-11-23T10:45:49.573Z,3.63
2022-11-23T10:48:52.750Z,3.67
2022-11-23T10:51:56.757Z,3.55
2022-11-23T10:55:11.793Z,3.97
2022-11-23T10:58:25.138Z,3.63
2022-11-23T11:01:30.233Z,3.72
2022-11-23T11:04:33.675Z,3.72
2022-11-23T11:07:38.247Z,3.47
2022-11-23T11:10:42.571Z,3.38
2022-11-23T11:13:47.589Z,3.22
2022-11-23T11:16:55.175Z,3.28
2022-11-23T11:19:58.188Z,3.13
2022-11-23T11:23:03.111Z,3.30
2022-11-23T11:26:14.250Z,3.70
2022-11-23T11:29:25.962Z,3.35
2022-11-23T11:32:34.266Z,2.88
2022-11-23T11:35:38.348Z,2.92
2022-11-23T11:38:44.206Z,3.17
2022-11-23T11:41:55.514Z,2.95
2022-11-23T11:44:59.951Z,3.70
2022-11-23T11:48:07.681Z,3.25
2022-11-23T11:51:11.812Z,3.10
2022-11-23T11:54:18.943Z,2.97
2022-11-23T11:57:22.353Z,2.88
2022-11-23T12:00:24.937Z,3.38
2022-11-23T12:03:36.274Z,3.28
2022-11-23T12:06:40.544Z,3.17
2022-11-23T12:09:45.182Z,3.30
2022-11-23T12:12:49.131Z,2.42
2022-11-23T12:15:56.080Z,3.28
2022-11-23T12:19:06.734Z,2.83
2022-11-23T12:22:28.302Z,3.08
2022-11-23T12:25:36.160Z,2.53
2022-11-23T12:28:46.463Z,2.95
2022-11-23T12:31:51.929Z,3.00
2022-11-23T12:35:07.167Z,2.90
2022-11-23T12:38:16.203Z,2.95
2022-11-23T12:41:23.762Z,2.47
2022-11-23T12:44:41.219Z,2.63
2022-11-23T12:47:47.622Z,2.45
2022-11-23T12:50:55.458Z,2.78
2022-11-23T12:54:04.387Z,2.35
2022-11-23T12:57:20.727Z,2.60
2022-11-23T13:00:24.473Z,2.60
2022-11-23T13:03:42.216Z,2.00
2022-11-23T13:07:20.757Z,2.30
2022-11-23T13:10:36.542Z,2.13
2022-11-23T13:14:00.293Z,3.13
2022-11-23T13:17:12.755Z,2.30
2022-11-23T13:20:30.451Z,2.45
2022-11-23T13:23:37.993Z,2.47
2022-11-23T13:26:40.616Z,2.72
2022-11-23T13:29:58.464Z,2.30
2022-11-23T13:33:29.421Z,2.78
2022-11-23T13:40:22.018Z,2.80
2022-11-23T13:43:26.267Z,2.25
2022-11-23T13:46:29.056Z,2.50
2022-11-23T13:49:33.076Z,2.35
2022-11-23T13:52:36.773Z,2.25
2022-11-23T13:55:40.953Z,3.10
2022-11-23T13:58:51.076Z,2.70
2022-11-23T14:02:14.802Z,2.90
2022-11-23T14:05:53.740Z,2.50
2022-11-23T14:09:01.230Z,2.45
2022-11-23T14:12:15.173Z,2.53
2022-11-23T14:15:19.679Z,2.67
2022-11-23T14:18:43.476Z,2.90
2022-11-23T14:21:51.385Z,2.83
2022-11-23T14:25:08.444Z,2.45
2022-11-23T14:28:19.016Z,2.35
2022-11-23T14:31:24.243Z,2.42
2022-11-23T14:34:34.845Z,3.15
2022-11-23T14:37:42.425Z,2.58
2022-11-23T14:40:49.743Z,2.17
2022-11-23T14:43:53.890Z,2.17
2022-11-23T14:47:03.347Z,2.35
2022-11-23T14:50:06.569Z,2.28
2022-11-23T14:53:11.848Z,2.20
2022-11-23T14:56:23.051Z,2.45
2022-11-23T14:59:28.370Z,2.35
2022-11-23T15:02:34.983Z,2.97
2022-11-23T15:05:38.903Z,2.47
2022-11-23T15:08:44.983Z,2.47
2022-11-23T15:11:49.049Z,2.33
2022-11-23T15:14:54.594Z,2.83
2022-11-23T15:17:58.599Z,2.70
2022-11-23T15:21:03.131Z,2.50
2022-11-23T15:24:07.513Z,3.03
2022-11-23T15:27:16.636Z,2.65
2022-11-23T15:30:22.062Z,3.08
2022-11-23T15:33:25.189Z,2.95
2022-11-23T15:36:30.284Z,3.15
2022-11-23T15:39:39.088Z,3.00
2022-11-23T15:42:48.920Z,2.72
2022-11-23T15:46:13.205Z,2.42
2022-11-23T15:49:20.497Z,2.70
2022-11-23T15:52:30.024Z,2.40
2022-11-23T15:55:32.737Z,2.92
2022-11-23T15:58:36.471Z,3.10
2022-11-23T16:02:05.171Z,3.45
2022-11-23T16:05:17.192Z,3.22
2022-11-23T16:08:27.995Z,3.13
2022-11-23T16:11:37.733Z,2.85
2022-11-23T16:14:42.427Z,2.60
2022-11-23T16:17:57.711Z,2.33
2022-11-23T16:21:02.176Z,2.60
2022-11-23T16:24:16.599Z,3.15
2022-11-23T16:27:41.759Z,2.45
2022-11-23T16:30:47.630Z,2.67
2022-11-23T16:33:53.366Z,3.15
2022-11-23T16:37:03.334Z,3.47
2022-11-23T16:40:09.951Z,2.72
2022-11-23T16:43:17.534Z,4.25
2022-11-23T16:46:21.122Z,3.88
2022-11-23T16:49:28.464Z,3.97
2022-11-23T16:52:31.085Z,3.65
2022-11-23T16:55:34.093Z,3.50
2022-11-23T16:58:38.254Z,2.85
2022-11-23T17:01:43.586Z,3.05
2022-11-23T17:04:54.722Z,2.58
2022-11-23T17:07:59.742Z,2.63
2022-11-23T17:11:11.004Z,2.65
2022-11-23T17:14:29.441Z,3.13
2022-11-23T17:17:34.390Z,3.63
2022-11-23T17:20:38.564Z,3.35
2022-11-23T17:23:42.705Z,2.90
2022-11-23T17:26:46.540Z,2.80
2022-11-23T17:29:52.169Z,3.22
2022-11-23T17:33:05.950Z,3.67
2022-11-23T17:36:20.629Z,3.22
2022-11-23T17:39:25.928Z,3.40
2022-11-23T17:42:28.816Z,3.20
2022-11-23T17:45:31.747Z,3.72
2022-11-23T17:48:34.645Z,3.20
2022-11-23T17:51:51.559Z,3.38
2022-11-23T17:54:56.745Z,3.67
2022-11-23T17:58:04.775Z,3.45
2022-11-23T18:01:14.423Z,3.30
2022-11-23T18:04:19.471Z,3.13
2022-11-23T18:07:31.288Z,3.92
2022-11-23T18:10:36.687Z,3.95
2022-11-23T18:13:44.082Z,4.03
2022-11-23T18:16:48.925Z,3.72
2022-11-23T18:19:57.675Z,3.70
2022-11-23T18:23:09.729Z,3.63
2022-11-23T18:26:35.501Z,3.25
2022-11-23T18:29:41.398Z,3.83
2022-11-23T18:32:54.877Z,3.15
2022-11-23T18:36:05.622Z,4.32
2022-11-23T18:39:15.754Z,5.80
2022-11-23T18:42:32.129Z,5.95
2022-11-23T18:45:39.658Z,4.75
2022-11-23T18:48:46.809Z,5.25
2022-11-23T18:51:52.990Z,4.00
2022-11-23T18:55:02.840Z,3.72
2022-11-23T18:58:06.737Z,4.10
2022-11-23T19:01:12.696Z,3.75
2022-11-23T19:04:15.757Z,3.65
2022-11-23T19:07:25.145Z,3.78
2022-11-23T19:10:30.771Z,3.58
2022-11-23T19:13:33.521Z,3.58
2022-11-23T19:16:36.258Z,4.18
2022-11-23T19:19:55.419Z,3.10
2022-11-23T19:23:02.056Z,3.75
2022-11-23T19:26:06.611Z,3.67
2022-11-23T19:29:09.274Z,3.60
2022-11-23T19:32:15.295Z,3.83
2022-11-23T19:35:27.132Z,2.95
2022-11-23T19:38:31.941Z,4.53
2022-11-23T19:41:36.399Z,3.65
2022-11-23T19:44:39.379Z,3.90
2022-11-23T19:47:42.046Z,3.35
2022-11-23T19:50:44.854Z,3.90
2022-11-23T19:53:48.989Z,3.50
2022-11-23T19:56:53.235Z,4.53
2022-11-23T19:59:57.029Z,4.20
2022-11-23T20:02:59.810Z,3.55
2022-11-23T20:06:03.229Z,3.75
2022-11-23T20:09:07.026Z,3.40
2022-11-23T20:12:11.008Z,3.80
2022-11-23T20:15:13.699Z,3.90
2022-11-23T20:18:16.343Z,3.58
2022-11-23T20:21:19.761Z,3.70
2022-11-23T20:24:22.382Z,3.78
2022-11-23T20:27:26.398Z,3.47
2022-11-23T20:30:29.164Z,3.70
2022-11-23T20:33:32.032Z,3.45
2022-11-23T20:36:35.532Z,2.92
2022-11-23T20:39:38.605Z,3.25
2022-11-23T20:42:43.107Z,3.50
2022-11-23T20:45:46.081Z,3.85
2022-11-23T20:48:48.857Z,3.25
2022-11-23T20:51:51.457Z,3.20
2022-11-23T20:54:56.681Z,3.65
2022-11-23T20:58:00.769Z,3.38
2022-11-23T21:01:04.538Z,3.38
2022-11-23T21:04:08.821Z,3.28
2022-11-23T21:07:11.562Z,3.90
2022-11-23T21:10:35.182Z,3.00
2022-11-23T21:13:56.696Z,3.10
2022-11-23T21:17:00.218Z,2.88
2022-11-23T21:20:03.106Z,3.33
2022-11-23T21:23:06.300Z,2.95
2022-11-23T21:26:09.296Z,3.47
2022-11-23T21:29:13.302Z,4.05
2022-11-23T21:32:16.196Z,3.50
2022-11-23T21:35:18.992Z,3.65
2022-11-23T21:38:23.312Z,3.35
2022-11-23T21:41:26.012Z,3.60
2022-11-23T21:44:30.068Z,3.88
2022-11-23T21:47:32.619Z,3.78
2022-11-23T21:50:35.512Z,3.50
2022-11-23T21:53:39.433Z,3.05
2022-11-23T21:56:42.409Z,3.20
2022-11-23T21:59:46.414Z,3.03
2022-11-23T22:02:49.126Z,3.05
2022-11-23T22:05:56.498Z,3.95
2022-11-23T22:09:00.015Z,3.75
2022-11-23T22:12:02.667Z,3.50
2022-11-23T22:15:07.948Z,3.38
2022-11-23T22:18:10.885Z,3.05
2022-11-23T22:21:14.071Z,2.67
2022-11-23T22:24:17.777Z,3.50
2022-11-23T22:27:20.450Z,3.28
2022-11-23T22:30:24.589Z,2.80
2022-11-23T22:33:28.225Z,3.22
2022-11-23T22:36:32.142Z,3.83
2022-11-23T22:39:59.618Z,2.90
2022-11-23T22:43:03.218Z,3.13
2022-11-23T22:46:08.980Z,2.90
2022-11-23T22:49:11.712Z,3.47
2022-11-23T22:52:18.255Z,2.63
2022-11-23T22:55:24.134Z,2.55
2022-11-23T22:58:27.018Z,3.30
2022-11-23T23:01:34.727Z,3.40
2022-11-23T23:04:38.348Z,2.92
2022-11-23T23:07:45.761Z,3.00
2022-11-23T23:10:48.822Z,2.72
2022-11-23T23:13:51.870Z,2.83
2022-11-23T23:16:56.274Z,2.72
2022-11-23T23:19:58.954Z,2.88
2022-11-23T23:23:02.514Z,2.70
2022-11-23T23:26:05.705Z,2.75
2022-11-23T23:29:08.398Z,2.75
2022-11-23T23:32:15.007Z,2.80
2022-11-23T23:35:17.898Z,2.47
2022-11-23T23:38:21.066Z,2.92
2022-11-23T23:41:23.753Z,3.15
2022-11-23T23:44:27.394Z,2.65
2022-11-23T23:47:31.813Z,2.45
2022-11-23T23:50:34.968Z,2.40
2022-11-23T23:53:38.157Z,2.83
2022-11-23T23:56:40.809Z,3.00
2022-11-23T23:59:43.374Z,3.58
